Terminal Aerodrome Forecast
Issued by NWS Northern Indiana

Home | Current Version | Previous Version | Text Only | Print | Product List | Glossary Off
Versions: 1 2 3 4 5 6 7 8 9 10 11 12 13 14 15 16 17 18 19 20

033
FTUS43 KIWX 181742
TAFFWA
TAF
KFWA 181742Z 1818/1918 09016G23KT 5SM -SHRA OVC050
     FM182100 09016G23KT 5SM -SHRA OVC020
     FM190300 09011KT 5SM -RA OVC010
     FM190600 10010KT P6SM -SHRA OVC008
     FM191200 20007KT P6SM VCSH OVC015=

USA.gov is the U.S. government's official web portal to all federal, state and local government web resources and services.